createdAt,value
2022-12-09T00:00:10.291Z,8.20
2022-12-09T00:02:38.278Z,7.70
2022-12-09T00:05:06.415Z,7.93
2022-12-09T00:07:35.294Z,8.27
2022-12-09T00:10:03.007Z,7.83
2022-12-09T00:12:30.368Z,7.87
2022-12-09T00:14:57.783Z,8.77
2022-12-09T00:17:25.142Z,8.20
2022-12-09T00:19:52.421Z,8.17
2022-12-09T00:22:19.577Z,8.07
2022-12-09T00:24:47.274Z,8.90
2022-12-09T00:27:14.431Z,8.37
2022-12-09T00:29:41.641Z,8.57
2022-12-09T00:32:08.935Z,8.53
2022-12-09T00:34:36.784Z,8.80
2022-12-09T00:37:07.551Z,8.53
2022-12-09T00:39:35.010Z,9.23
2022-12-09T00:42:02.578Z,8.70
2022-12-09T00:44:29.794Z,8.80
2022-12-09T00:46:57.188Z,9.77
2022-12-09T00:49:25.342Z,9.10
2022-12-09T00:51:54.091Z,9.07
2022-12-09T00:54:22.455Z,8.73
2022-12-09T00:56:51.103Z,9.00
2022-12-09T00:59:18.273Z,8.47
2022-12-09T01:01:45.488Z,9.07
2022-12-09T01:04:13.609Z,8.87
2022-12-09T01:06:41.998Z,9.57
2022-12-09T01:09:09.430Z,9.47
2022-12-09T01:11:36.798Z,9.40
2022-12-09T01:14:04.661Z,9.40
2022-12-09T01:16:33.474Z,9.33
2022-12-09T01:19:02.103Z,9.27
2022-12-09T01:21:31.700Z,9.13
2022-12-09T01:23:58.927Z,9.63
2022-12-09T01:26:26.444Z,8.97
2022-12-09T01:28:55.635Z,9.53
2022-12-09T01:31:24.115Z,9.30
2022-12-09T01:33:52.941Z,9.63
2022-12-09T01:36:22.107Z,9.30
2022-12-09T01:38:50.064Z,8.57
2022-12-09T01:41:18.038Z,9.30
2022-12-09T01:43:45.318Z,9.10
2022-12-09T01:46:12.949Z,9.13
2022-12-09T01:48:42.373Z,9.20
2022-12-09T01:51:17.475Z,9.17
2022-12-09T01:53:47.103Z,9.33
2022-12-09T01:56:26.136Z,9.23
2022-12-09T01:58:54.373Z,9.20
2022-12-09T02:01:22.542Z,9.33
2022-12-09T02:03:50.543Z,8.97
2022-12-09T02:06:18.056Z,8.50
2022-12-09T02:08:46.664Z,8.13
2022-12-09T02:11:26.090Z,7.70
2022-12-09T02:14:03.371Z,7.13
2022-12-09T02:16:36.588Z,7.33
2022-12-09T02:19:17.613Z,7.07
2022-12-09T02:21:49.910Z,7.43
2022-12-09T02:24:25.748Z,7.17
2022-12-09T02:27:05.971Z,7.83
2022-12-09T02:29:57.844Z,7.07
2022-12-09T02:32:43.933Z,7.07
2022-12-09T02:35:20.169Z,7.47
2022-12-09T02:38:09.165Z,7.37
2022-12-09T02:40:37.433Z,7.53
2022-12-09T02:43:06.583Z,7.53
2022-12-09T02:45:36.491Z,7.67
2022-12-09T02:48:05.335Z,7.20
2022-12-09T02:50:35.464Z,7.10
2022-12-09T02:53:11.392Z,6.77
2022-12-09T02:55:41.000Z,6.40
2022-12-09T02:58:08.315Z,6.33
2022-12-09T03:00:38.263Z,6.53
2022-12-09T03:03:07.593Z,7.13
2022-12-09T03:05:53.559Z,7.10
2022-12-09T03:08:33.358Z,6.80
2022-12-09T03:11:02.924Z,6.73
2022-12-09T03:13:49.254Z,6.80
2022-12-09T03:16:16.861Z,7.80
2022-12-09T03:18:46.536Z,7.30
2022-12-09T03:21:15.345Z,6.90
2022-12-09T03:23:44.492Z,7.53
2022-12-09T03:26:13.186Z,7.27
2022-12-09T03:28:45.552Z,6.97
2022-12-09T03:31:15.688Z,7.07
2022-12-09T03:33:45.271Z,6.90
2022-12-09T03:36:13.748Z,6.60
2022-12-09T03:38:43.294Z,6.40
2022-12-09T03:41:26.379Z,6.63
2022-12-09T03:43:58.616Z,7.37
2022-12-09T03:46:26.339Z,7.03
2022-12-09T03:48:54.221Z,6.83
2022-12-09T03:51:25.150Z,7.10
2022-12-09T03:54:01.980Z,7.10
2022-12-09T03:56:31.626Z,6.67
2022-12-09T03:59:00.557Z,7.20
2022-12-09T04:01:29.611Z,7.07
2022-12-09T04:03:58.319Z,7.17
2022-12-09T04:06:25.921Z,7.70
2022-12-09T04:08:56.843Z,6.90
2022-12-09T04:11:28.351Z,7.27
2022-12-09T04:13:55.858Z,7.60
2022-12-09T04:16:23.598Z,7.60
2022-12-09T04:18:51.304Z,7.07
2022-12-09T04:21:19.076Z,7.47
2022-12-09T04:23:46.332Z,7.27
2022-12-09T04:26:15.084Z,7.87
2022-12-09T04:28:42.624Z,7.17
2022-12-09T04:31:13.822Z,8.43
2022-12-09T04:33:41.782Z,7.17
2022-12-09T04:36:10.365Z,6.87
2022-12-09T04:38:37.936Z,7.33
2022-12-09T04:41:05.682Z,6.97
2022-12-09T04:43:33.014Z,6.80
2022-12-09T04:46:01.507Z,6.73
2022-12-09T04:48:29.364Z,7.10
2022-12-09T04:50:57.150Z,6.80
2022-12-09T04:53:24.982Z,7.13
2022-12-09T04:56:02.172Z,7.03
2022-12-09T04:58:29.909Z,7.30
2022-12-09T05:00:57.471Z,7.33
2022-12-09T05:03:25.456Z,7.60
2022-12-09T05:05:53.268Z,7.47
2022-12-09T05:08:28.399Z,7.20
2022-12-09T05:10:58.767Z,7.10
2022-12-09T05:13:27.993Z,7.13
2022-12-09T05:15:59.824Z,7.80
2022-12-09T05:18:27.443Z,7.13
2022-12-09T05:20:55.042Z,7.93
2022-12-09T05:23:22.759Z,7.10
2022-12-09T05:25:50.165Z,8.17
2022-12-09T05:28:17.829Z,8.00
2022-12-09T05:30:45.920Z,7.50
2022-12-09T05:33:13.830Z,6.97
2022-12-09T05:35:52.213Z,6.97
2022-12-09T05:38:20.780Z,7.10
2022-12-09T05:40:48.507Z,7.33
2022-12-09T05:43:16.131Z,8.20
2022-12-09T05:45:43.940Z,7.33
2022-12-09T05:48:11.296Z,8.47
2022-12-09T05:50:38.794Z,7.97
2022-12-09T05:53:06.251Z,7.93
2022-12-09T05:55:33.538Z,7.73
2022-12-09T05:58:00.958Z,7.57
2022-12-09T06:00:28.578Z,8.50
2022-12-09T06:02:56.051Z,7.90
2022-12-09T06:05:23.808Z,7.33
2022-12-09T06:07:51.373Z,8.83
2022-12-09T06:10:19.031Z,7.57
2022-12-09T06:12:46.614Z,7.70
2022-12-09T06:15:20.281Z,8.03
2022-12-09T06:17:48.948Z,8.27
2022-12-09T06:20:16.948Z,7.87
2022-12-09T06:22:44.229Z,7.70
2022-12-09T06:25:11.585Z,8.10
2022-12-09T06:27:39.093Z,8.13
2022-12-09T06:30:07.112Z,8.50
2022-12-09T06:32:35.141Z,8.67
2022-12-09T06:35:03.019Z,8.83
2022-12-09T06:37:32.567Z,8.80
2022-12-09T06:40:00.009Z,8.90
2022-12-09T06:42:27.753Z,8.27
2022-12-09T06:44:55.139Z,8.80
2022-12-09T06:47:22.789Z,10.10
2022-12-09T06:49:50.227Z,11.03
2022-12-09T06:52:17.815Z,10.80
2022-12-09T06:54:45.090Z,9.37
2022-12-09T06:57:12.684Z,10.53
2022-12-09T06:59:39.920Z,9.77
2022-12-09T07:02:08.242Z,10.53
2022-12-09T07:04:36.295Z,10.47
2022-12-09T07:07:04.110Z,10.47
2022-12-09T07:09:31.735Z,11.30
2022-12-09T07:11:59.369Z,11.60
2022-12-09T07:14:26.870Z,12.47
2022-12-09T07:16:54.491Z,12.93
2022-12-09T07:19:23.335Z,37.90
2022-12-09T07:21:51.750Z,13.70
2022-12-09T07:24:20.171Z,12.07
2022-12-09T07:26:47.925Z,11.63
2022-12-09T07:29:15.956Z,11.10
2022-12-09T07:31:45.269Z,11.27
2022-12-09T07:34:12.820Z,11.57
2022-12-09T07:36:40.687Z,11.40
2022-12-09T07:39:10.917Z,11.90
2022-12-09T07:41:38.222Z,11.63
2022-12-09T07:44:05.533Z,11.17
2022-12-09T07:46:33.244Z,14.20
2022-12-09T07:49:02.750Z,12.00
2022-12-09T07:51:30.313Z,15.83
2022-12-09T07:53:58.091Z,12.83
2022-12-09T07:56:27.641Z,11.43
2022-12-09T07:58:57.272Z,11.50
2022-12-09T08:01:29.385Z,11.17
2022-12-09T08:04:01.425Z,11.53
2022-12-09T08:06:30.375Z,11.17
2022-12-09T08:09:02.152Z,12.63
2022-12-09T08:11:31.182Z,11.70
2022-12-09T08:14:07.418Z,12.07
2022-12-09T08:16:38.413Z,11.87
2022-12-09T08:19:06.195Z,11.37
2022-12-09T08:21:34.461Z,11.07
2022-12-09T08:24:03.303Z,11.60
2022-12-09T08:26:32.243Z,10.90
2022-12-09T08:28:59.921Z,11.43
2022-12-09T08:31:28.556Z,11.50
2022-12-09T08:33:56.798Z,11.17
2022-12-09T08:36:26.434Z,11.47
2022-12-09T08:38:54.539Z,11.93
2022-12-09T08:41:39.189Z,10.83
2022-12-09T08:44:08.901Z,12.00
2022-12-09T08:46:37.374Z,11.83
2022-12-09T08:49:05.400Z,11.87
2022-12-09T08:51:33.268Z,13.40
2022-12-09T08:54:01.726Z,11.57
2022-12-09T08:56:29.960Z,11.67
2022-12-09T08:58:58.028Z,12.40
2022-12-09T09:01:27.006Z,14.57
2022-12-09T09:03:54.765Z,12.10
2022-12-09T09:06:22.456Z,13.37
2022-12-09T09:08:50.338Z,11.60
2022-12-09T09:11:19.700Z,12.27
2022-12-09T09:13:48.939Z,11.33
2022-12-09T09:16:17.585Z,11.60
2022-12-09T09:18:45.499Z,12.30
2022-12-09T09:21:14.715Z,11.37
2022-12-09T09:23:42.977Z,11.97
2022-12-09T09:26:22.002Z,12.00
2022-12-09T09:28:49.715Z,11.33
2022-12-09T09:31:18.504Z,12.00
2022-12-09T09:33:46.124Z,13.00
2022-12-09T09:36:14.972Z,11.90
2022-12-09T09:38:42.706Z,12.20
2022-12-09T09:41:21.766Z,12.17
2022-12-09T09:43:49.289Z,12.30
2022-12-09T09:46:21.719Z,13.10
2022-12-09T09:48:49.607Z,13.23
2022-12-09T09:51:19.215Z,14.60
2022-12-09T09:53:49.840Z,12.90
2022-12-09T09:56:20.491Z,15.10
2022-12-09T09:58:48.114Z,13.70
2022-12-09T10:01:17.853Z,13.90
2022-12-09T10:04:04.600Z,14.07
2022-12-09T10:06:41.619Z,13.53
2022-12-09T10:09:15.177Z,13.63
2022-12-09T10:11:43.021Z,14.13
2022-12-09T10:14:26.334Z,15.43
2022-12-09T10:17:30.080Z,15.77
2022-12-09T10:20:27.635Z,15.57
2022-12-09T10:22:55.185Z,14.80
2022-12-09T10:25:25.012Z,15.27
2022-12-09T10:28:10.928Z,14.97
2022-12-09T10:30:44.222Z,15.00
2022-12-09T10:33:13.725Z,15.37
2022-12-09T10:35:41.503Z,15.13
2022-12-09T10:38:13.319Z,15.73
2022-12-09T10:40:46.969Z,32.33
2022-12-09T10:43:44.134Z,15.73
2022-12-09T10:46:17.821Z,14.03
2022-12-09T10:48:45.518Z,15.87
2022-12-09T10:51:14.316Z,15.83
2022-12-09T10:54:05.046Z,13.83
2022-12-09T10:56:34.067Z,13.80
2022-12-09T10:59:12.780Z,13.33
2022-12-09T11:01:49.609Z,13.17
2022-12-09T11:04:22.747Z,13.63
2022-12-09T11:06:55.493Z,14.70
2022-12-09T11:09:31.958Z,14.07
2022-12-09T11:12:00.161Z,15.10
2022-12-09T11:14:34.191Z,14.30
2022-12-09T11:17:12.914Z,13.17
2022-12-09T11:19:40.912Z,12.63
2022-12-09T11:22:14.349Z,14.03
2022-12-09T11:24:42.379Z,12.40
2022-12-09T11:27:28.949Z,13.67
2022-12-09T11:30:12.509Z,12.97
2022-12-09T11:33:01.115Z,13.90
2022-12-09T11:35:38.312Z,13.57
2022-12-09T11:38:24.820Z,13.23
2022-12-09T11:40:58.177Z,12.80
2022-12-09T11:43:36.483Z,13.23
2022-12-09T11:46:07.087Z,13.33
2022-12-09T11:48:41.706Z,12.87
2022-12-09T11:51:25.111Z,13.07
2022-12-09T11:53:53.152Z,13.83
2022-12-09T11:56:27.928Z,13.60
2022-12-09T11:59:01.440Z,13.07
2022-12-09T12:01:47.809Z,13.10
2022-12-09T12:04:17.034Z,13.63
2022-12-09T12:06:44.202Z,12.37
2022-12-09T12:09:23.378Z,13.10
2022-12-09T12:12:09.417Z,12.63
2022-12-09T12:14:38.884Z,12.63
2022-12-09T12:17:25.132Z,12.13
2022-12-09T12:19:53.469Z,11.10
2022-12-09T12:22:32.979Z,12.40
2022-12-09T12:25:05.310Z,12.40
2022-12-09T12:27:42.334Z,12.27
2022-12-09T12:30:11.051Z,13.33
2022-12-09T12:33:52.952Z,11.83
2022-12-09T12:35:45.894Z,11.57
2022-12-09T12:38:31.984Z,12.73
2022-12-09T12:41:07.158Z,13.10
2022-12-09T12:43:59.074Z,12.33
2022-12-09T12:46:38.206Z,12.33
2022-12-09T12:49:31.474Z,13.03
2022-12-09T12:52:05.071Z,11.80
2022-12-09T12:54:45.686Z,12.47
2022-12-09T12:57:12.862Z,12.47
2022-12-09T12:59:43.875Z,12.23
2022-12-09T13:02:27.324Z,12.60
2022-12-09T13:05:14.820Z,12.73
2022-12-09T13:07:50.334Z,12.60
2022-12-09T13:10:33.975Z,13.83
2022-12-09T13:13:02.123Z,13.63
2022-12-09T13:15:32.144Z,14.43
2022-12-09T13:18:10.207Z,14.27
2022-12-09T13:20:39.784Z,14.30
2022-12-09T13:23:31.563Z,14.10
2022-12-09T13:26:26.264Z,13.23
2022-12-09T13:29:11.906Z,13.87
2022-12-09T13:31:48.109Z,14.40
2022-12-09T13:34:26.416Z,13.30
2022-12-09T13:36:53.234Z,14.07
2022-12-09T13:39:48.758Z,13.47
2022-12-09T13:42:47.375Z,13.87
2022-12-09T13:45:30.976Z,14.80
2022-12-09T13:48:04.177Z,14.07
2022-12-09T13:50:43.631Z,14.73
2022-12-09T13:53:19.447Z,14.93
2022-12-09T13:55:55.483Z,14.33
2022-12-09T13:58:58.435Z,13.83
2022-12-09T14:01:54.935Z,13.57
2022-12-09T14:04:28.339Z,14.73
2022-12-09T14:06:58.071Z,14.97
2022-12-09T14:09:39.741Z,14.67
2022-12-09T14:12:14.912Z,15.30
2022-12-09T14:14:49.371Z,14.50
2022-12-09T14:17:26.966Z,13.97
2022-12-09T14:20:13.952Z,15.27
2022-12-09T14:23:06.511Z,13.20
2022-12-09T14:25:36.024Z,12.63
2022-12-09T14:28:12.059Z,11.67
2022-12-09T14:30:54.360Z,11.93
2022-12-09T14:33:45.686Z,11.87
2022-12-09T14:36:15.581Z,12.57
2022-12-09T14:41:58.774Z,13.87
2022-12-09T14:44:43.747Z,12.27
2022-12-09T14:47:32.940Z,12.93
2022-12-09T14:50:13.963Z,12.67
2022-12-09T14:53:12.644Z,14.07
2022-12-09T14:55:41.042Z,13.33
2022-12-09T14:58:22.074Z,13.53
2022-12-09T15:01:02.804Z,13.17
2022-12-09T15:03:34.439Z,13.10
2022-12-09T15:06:06.693Z,13.60
2022-12-09T15:08:41.516Z,15.27
2022-12-09T15:11:16.046Z,14.60
2022-12-09T15:13:46.574Z,13.60
2022-12-09T15:16:15.837Z,14.30
2022-12-09T15:18:44.172Z,14.03
2022-12-09T15:21:12.581Z,13.27
2022-12-09T15:23:40.893Z,13.77
2022-12-09T15:26:19.958Z,14.30
2022-12-09T15:28:48.394Z,14.53
2022-12-09T15:31:20.415Z,14.63
2022-12-09T15:33:49.572Z,15.50
2022-12-09T15:36:19.196Z,15.07
2022-12-09T15:38:48.953Z,14.13
2022-12-09T15:41:35.402Z,14.67
2022-12-09T15:44:05.398Z,14.53
2022-12-09T15:46:33.484Z,14.77
2022-12-09T15:49:02.072Z,15.40
2022-12-09T15:51:29.983Z,15.30
2022-12-09T15:53:59.453Z,15.17
2022-12-09T15:56:34.155Z,15.87
2022-12-09T15:59:06.154Z,14.40
2022-12-09T16:01:35.430Z,15.73
2022-12-09T16:04:06.330Z,15.93
2022-12-09T16:06:37.335Z,15.43
2022-12-09T16:09:13.252Z,15.87
2022-12-09T16:11:48.414Z,15.30
2022-12-09T16:14:16.926Z,15.00
2022-12-09T16:16:51.678Z,14.77
2022-12-09T16:19:25.406Z,16.63
2022-12-09T16:21:54.260Z,16.87
2022-12-09T16:24:21.578Z,16.07
2022-12-09T16:26:50.425Z,16.90
2022-12-09T16:29:20.627Z,16.73
2022-12-09T16:31:52.748Z,16.37
2022-12-09T16:34:23.512Z,16.23
2022-12-09T16:36:55.117Z,17.80
2022-12-09T16:39:25.369Z,16.70
2022-12-09T16:41:55.495Z,17.03
2022-12-09T16:44:27.565Z,15.13
2022-12-09T16:47:13.391Z,16.10
2022-12-09T16:49:41.552Z,14.67
2022-12-09T16:52:11.914Z,14.10
2022-12-09T16:54:39.237Z,15.13
2022-12-09T16:57:06.437Z,14.13
2022-12-09T16:59:37.819Z,14.67
2022-12-09T17:02:10.720Z,14.83
2022-12-09T17:04:37.982Z,14.10
2022-12-09T17:07:05.170Z,15.30
2022-12-09T17:09:32.567Z,14.70
2022-12-09T17:11:59.853Z,14.73
2022-12-09T17:14:27.058Z,15.80
2022-12-09T17:16:54.305Z,14.30
2022-12-09T17:19:29.647Z,14.60
2022-12-09T17:21:57.853Z,15.30
2022-12-09T17:24:25.314Z,15.00
2022-12-09T17:26:52.558Z,15.37
2022-12-09T17:29:19.745Z,16.20
2022-12-09T17:31:49.652Z,15.13
2022-12-09T17:34:17.046Z,15.13
2022-12-09T17:36:44.278Z,15.47
2022-12-09T17:39:15.360Z,15.93
2022-12-09T17:41:42.987Z,14.60
2022-12-09T17:44:10.260Z,15.27
2022-12-09T17:49:22.326Z,14.93
2022-12-09T17:51:49.506Z,14.87
2022-12-09T17:54:16.832Z,14.90
2022-12-09T17:56:46.585Z,14.37
2022-12-09T17:59:14.889Z,15.07
2022-12-09T18:01:43.902Z,13.97
2022-12-09T18:04:11.469Z,14.00
2022-12-09T18:06:40.077Z,14.27
2022-12-09T18:09:08.778Z,14.77
2022-12-09T18:11:36.138Z,14.17
2022-12-09T18:14:03.989Z,14.60
2022-12-09T18:16:31.269Z,14.53
2022-12-09T18:19:02.482Z,15.17
2022-12-09T18:21:29.763Z,15.03
2022-12-09T18:23:56.954Z,15.23
2022-12-09T18:26:29.933Z,14.97
2022-12-09T18:28:58.591Z,14.47
2022-12-09T18:31:26.007Z,16.07
2022-12-09T18:33:53.588Z,14.63
2022-12-09T18:36:25.574Z,14.10
2022-12-09T18:38:53.997Z,14.20
2022-12-09T18:41:39.162Z,14.13
2022-12-09T18:44:07.686Z,14.37
2022-12-09T18:46:39.573Z,13.60
2022-12-09T18:52:05.606Z,14.87
2022-12-09T18:54:33.301Z,13.90
2022-12-09T18:57:01.971Z,14.07
2022-12-09T18:59:30.946Z,14.27
2022-12-09T19:01:58.597Z,14.37
2022-12-09T19:04:27.420Z,14.73
2022-12-09T19:06:55.934Z,13.97
2022-12-09T19:09:25.416Z,14.70
2022-12-09T19:11:53.801Z,15.07
2022-12-09T19:14:21.902Z,14.87
2022-12-09T19:16:49.139Z,15.03
2022-12-09T19:19:17.767Z,15.50
2022-12-09T19:21:45.015Z,15.80
2022-12-09T19:24:14.721Z,14.33
2022-12-09T19:26:42.889Z,14.73
2022-12-09T19:29:10.772Z,15.23
2022-12-09T19:31:39.364Z,14.07
2022-12-09T19:34:06.519Z,15.00
2022-12-09T19:36:34.222Z,15.03
2022-12-09T19:39:02.090Z,15.73
2022-12-09T19:41:29.431Z,14.00
2022-12-09T19:43:57.410Z,14.20
2022-12-09T19:46:26.414Z,15.83
2022-12-09T19:48:54.282Z,14.30
2022-12-09T19:51:22.474Z,14.33
2022-12-09T19:53:49.913Z,14.97
2022-12-09T19:56:18.257Z,14.13
2022-12-09T19:58:46.129Z,14.67
2022-12-09T20:01:20.693Z,13.93
2022-12-09T20:03:49.351Z,14.43
2022-12-09T20:06:18.660Z,13.90
2022-12-09T20:08:46.465Z,14.80
2022-12-09T20:11:15.644Z,14.10
2022-12-09T20:13:43.348Z,15.43
2022-12-09T20:16:11.822Z,14.30
2022-12-09T20:18:39.086Z,14.33
2022-12-09T20:21:07.517Z,14.33
2022-12-09T20:23:35.566Z,13.97
2022-12-09T20:26:06.347Z,14.90
2022-12-09T20:28:33.886Z,13.73
2022-12-09T20:31:05.220Z,14.33
2022-12-09T20:33:32.486Z,15.13
2022-12-09T20:36:07.930Z,14.10
2022-12-09T20:38:35.602Z,14.83
2022-12-09T20:41:03.841Z,14.53
2022-12-09T20:43:31.668Z,15.30
2022-12-09T20:45:59.045Z,15.00
2022-12-09T20:48:26.780Z,15.67
2022-12-09T20:50:53.938Z,15.57
2022-12-09T20:53:21.130Z,14.73
2022-12-09T20:55:56.568Z,15.57
2022-12-09T20:58:23.902Z,15.33
2022-12-09T21:01:12.899Z,15.60
2022-12-09T21:03:40.553Z,15.77
2022-12-09T21:06:07.984Z,15.63
2022-12-09T21:08:35.541Z,15.07
2022-12-09T21:11:04.286Z,15.73
2022-12-09T21:16:20.353Z,16.00
2022-12-09T21:18:51.307Z,16.77
2022-12-09T21:21:19.448Z,15.93
2022-12-09T21:23:46.900Z,16.73
2022-12-09T21:26:18.464Z,16.30
2022-12-09T21:28:46.672Z,16.70
2022-12-09T21:31:17.833Z,16.67
2022-12-09T21:33:45.374Z,17.30
2022-12-09T21:36:14.028Z,18.03
2022-12-09T21:38:41.670Z,17.33
2022-12-09T21:41:10.267Z,17.47
2022-12-09T21:43:38.861Z,17.93
2022-12-09T21:46:07.170Z,19.00
2022-12-09T21:48:34.991Z,19.70
2022-12-09T21:51:02.928Z,18.93
2022-12-09T21:53:30.590Z,19.97
2022-12-09T21:56:05.674Z,19.50
2022-12-09T21:58:33.367Z,19.03
2022-12-09T22:01:02.902Z,21.27
2022-12-09T22:03:30.163Z,19.37
2022-12-09T22:06:00.167Z,20.70
2022-12-09T22:08:27.550Z,19.83
2022-12-09T22:10:54.818Z,21.20
2022-12-09T22:13:22.664Z,19.80
2022-12-09T22:15:49.927Z,20.20
2022-12-09T22:18:17.145Z,19.50
2022-12-09T22:21:15.877Z,19.60
2022-12-09T22:23:31.737Z,19.97
2022-12-09T22:25:58.937Z,20.43
2022-12-09T22:28:26.298Z,19.93
2022-12-09T22:30:53.552Z,20.43
2022-12-09T22:33:20.761Z,20.67
2022-12-09T22:35:47.928Z,20.07
2022-12-09T22:38:15.104Z,20.53
2022-12-09T22:40:42.553Z,21.13
2022-12-09T22:43:09.711Z,19.53
2022-12-09T22:45:37.155Z,19.80
2022-12-09T22:48:04.631Z,20.53
2022-12-09T22:50:35.341Z,19.87
2022-12-09T22:53:02.854Z,19.83
2022-12-09T22:55:30.362Z,20.27
2022-12-09T22:58:16.285Z,20.17
2022-12-09T23:00:43.590Z,20.27
2022-12-09T23:03:10.789Z,20.87
2022-12-09T23:05:38.610Z,20.77
2022-12-09T23:08:06.470Z,21.03
2022-12-09T23:10:34.074Z,20.37
2022-12-09T23:13:01.282Z,21.50
2022-12-09T23:15:28.554Z,19.73
2022-12-09T23:17:55.817Z,20.67
2022-12-09T23:20:23.025Z,20.63
2022-12-09T23:22:50.218Z,20.30
2022-12-09T23:25:17.768Z,20.53
2022-12-09T23:27:45.462Z,20.57
2022-12-09T23:30:13.690Z,20.37
2022-12-09T23:32:41.014Z,20.83
2022-12-09T23:35:08.425Z,20.40
2022-12-09T23:37:35.606Z,21.53
2022-12-09T23:40:02.785Z,22.23
2022-12-09T23:42:29.922Z,21.53
2022-12-09T23:44:57.093Z,21.57
2022-12-09T23:47:24.266Z,20.43
2022-12-09T23:49:51.398Z,21.70
2022-12-09T23:52:18.602Z,20.33
2022-12-09T23:54:46.117Z,22.07
2022-12-09T23:57:13.388Z,22.47
2022-12-09T23:59:40.521Z,21.93
